sensor_id;sensor_type;location;lat;lon;timestamp;P1;durP1;ratioP1;P2;durP2;ratioP2
22935;SDS011;11633;42.716;23.312;2022-07-03T00:02:00;12.90;;;9.52;;
22935;SDS011;11633;42.716;23.312;2022-07-03T00:04:26;8.00;;;6.47;;
22935;SDS011;11633;42.716;23.312;2022-07-03T00:06:52;5.95;;;4.82;;
22935;SDS011;11633;42.716;23.312;2022-07-03T00:09:17;4.65;;;3.80;;
22935;SDS011;11633;42.716;23.312;2022-07-03T00:11:43;5.18;;;4.40;;
22935;SDS011;11633;42.716;23.312;2022-07-03T00:14:08;3.92;;;3.20;;
22935;SDS011;11633;42.716;23.312;2022-07-03T00:16:33;5.13;;;3.80;;
22935;SDS011;11633;42.716;23.312;2022-07-03T00:18:59;3.53;;;3.22;;
22935;SDS011;11633;42.716;23.312;2022-07-03T00:24:08;2.97;;;2.67;;
22935;SDS011;11633;42.716;23.312;2022-07-03T00:26:36;3.53;;;3.22;;
22935;SDS011;11633;42.716;23.312;2022-07-03T00:29:02;4.57;;;3.70;;
22935;SDS011;11633;42.716;23.312;2022-07-03T00:31:28;4.07;;;3.67;;
22935;SDS011;11633;42.716;23.312;2022-07-03T00:33:56;4.10;;;3.22;;
22935;SDS011;11633;42.716;23.312;2022-07-03T00:36:22;4.25;;;3.58;;
22935;SDS011;11633;42.716;23.312;2022-07-03T00:38:47;4.32;;;3.90;;
22935;SDS011;11633;42.716;23.312;2022-07-03T00:41:29;5.05;;;3.40;;
22935;SDS011;11633;42.716;23.312;2022-07-03T00:43:55;5.28;;;3.58;;
22935;SDS011;11633;42.716;23.312;2022-07-03T00:46:22;4.10;;;3.70;;
22935;SDS011;11633;42.716;23.312;2022-07-03T00:48:47;4.25;;;3.70;;
22935;SDS011;11633;42.716;23.312;2022-07-03T00:51:14;4.90;;;3.53;;
22935;SDS011;11633;42.716;23.312;2022-07-03T00:53:40;4.32;;;3.92;;
22935;SDS011;11633;42.716;23.312;2022-07-03T00:56:06;3.70;;;3.40;;
22935;SDS011;11633;42.716;23.312;2022-07-03T00:58:34;4.35;;;3.95;;
22935;SDS011;11633;42.716;23.312;2022-07-03T01:01:00;4.28;;;3.88;;
22935;SDS011;11633;42.716;23.312;2022-07-03T01:03:26;4.70;;;3.92;;
22935;SDS011;11633;42.716;23.312;2022-07-03T01:05:53;4.25;;;3.83;;
22935;SDS011;11633;42.716;23.312;2022-07-03T01:13:58;4.80;;;4.18;;
22935;SDS011;11633;42.716;23.312;2022-07-03T01:16:13;4.50;;;4.05;;
22935;SDS011;11633;42.716;23.312;2022-07-03T01:18:48;5.10;;;4.35;;
22935;SDS011;11633;42.716;23.312;2022-07-03T01:21:16;4.35;;;3.75;;
22935;SDS011;11633;42.716;23.312;2022-07-03T01:26:12;4.63;;;3.75;;
22935;SDS011;11633;42.716;23.312;2022-07-03T01:28:38;4.07;;;3.67;;
22935;SDS011;11633;42.716;23.312;2022-07-03T01:31:05;7.03;;;4.20;;
22935;SDS011;11633;42.716;23.312;2022-07-03T01:33:32;4.40;;;3.97;;
22935;SDS011;11633;42.716;23.312;2022-07-03T01:38:27;4.05;;;3.53;;
22935;SDS011;11633;42.716;23.312;2022-07-03T01:40:52;3.95;;;3.65;;
22935;SDS011;11633;42.716;23.312;2022-07-03T01:43:19;6.00;;;3.85;;
22935;SDS011;11633;42.716;23.312;2022-07-03T01:45:47;4.90;;;3.90;;
22935;SDS011;11633;42.716;23.312;2022-07-03T01:48:13;4.43;;;3.60;;
22935;SDS011;11633;42.716;23.312;2022-07-03T01:50:39;4.50;;;3.55;;
22935;SDS011;11633;42.716;23.312;2022-07-03T01:53:06;4.22;;;3.83;;
22935;SDS011;11633;42.716;23.312;2022-07-03T01:55:33;4.70;;;4.03;;
22935;SDS011;11633;42.716;23.312;2022-07-03T01:57:59;5.15;;;3.80;;
22935;SDS011;11633;42.716;23.312;2022-07-03T02:00:25;6.65;;;4.00;;
22935;SDS011;11633;42.716;23.312;2022-07-03T02:07:52;4.57;;;3.33;;
22935;SDS011;11633;42.716;23.312;2022-07-03T02:10:19;5.93;;;3.97;;
22935;SDS011;11633;42.716;23.312;2022-07-03T02:12:52;4.63;;;4.05;;
22935;SDS011;11633;42.716;23.312;2022-07-03T02:15:25;4.93;;;4.28;;
22935;SDS011;11633;42.716;23.312;2022-07-03T02:17:53;5.00;;;4.00;;
22935;SDS011;11633;42.716;23.312;2022-07-03T02:20:19;4.05;;;3.65;;
22935;SDS011;11633;42.716;23.312;2022-07-03T02:23:18;4.43;;;3.72;;
22935;SDS011;11633;42.716;23.312;2022-07-03T02:25:37;4.13;;;3.53;;
22935;SDS011;11633;42.716;23.312;2022-07-03T02:28:16;4.53;;;4.13;;
22935;SDS011;11633;42.716;23.312;2022-07-03T02:30:45;4.85;;;3.47;;
22935;SDS011;11633;42.716;23.312;2022-07-03T02:33:13;4.90;;;3.90;;
22935;SDS011;11633;42.716;23.312;2022-07-03T02:35:43;5.25;;;3.58;;
22935;SDS011;11633;42.716;23.312;2022-07-03T02:38:10;5.07;;;4.25;;
22935;SDS011;11633;42.716;23.312;2022-07-03T02:45:42;4.97;;;4.47;;
22935;SDS011;11633;42.716;23.312;2022-07-03T02:48:12;4.53;;;3.75;;
22935;SDS011;11633;42.716;23.312;2022-07-03T02:50:38;4.35;;;3.90;;
22935;SDS011;11633;42.716;23.312;2022-07-03T02:53:11;5.80;;;4.28;;
22935;SDS011;11633;42.716;23.312;2022-07-03T02:55:41;5.60;;;3.97;;
22935;SDS011;11633;42.716;23.312;2022-07-03T03:00:58;5.18;;;3.80;;
22935;SDS011;11633;42.716;23.312;2022-07-03T03:03:29;4.93;;;3.72;;
22935;SDS011;11633;42.716;23.312;2022-07-03T03:05:55;5.22;;;3.78;;
22935;SDS011;11633;42.716;23.312;2022-07-03T03:11:08;4.88;;;4.20;;
22935;SDS011;11633;42.716;23.312;2022-07-03T03:13:34;6.25;;;4.45;;
22935;SDS011;11633;42.716;23.312;2022-07-03T03:16:06;8.00;;;4.53;;
22935;SDS011;11633;42.716;23.312;2022-07-03T03:18:33;4.57;;;3.95;;
22935;SDS011;11633;42.716;23.312;2022-07-03T03:21:00;5.85;;;4.22;;
22935;SDS011;11633;42.716;23.312;2022-07-03T03:26:13;5.07;;;4.57;;
22935;SDS011;11633;42.716;23.312;2022-07-03T03:28:39;6.15;;;4.57;;
22935;SDS011;11633;42.716;23.312;2022-07-03T03:31:06;5.78;;;4.72;;
22935;SDS011;11633;42.716;23.312;2022-07-03T03:33:35;5.05;;;4.45;;
22935;SDS011;11633;42.716;23.312;2022-07-03T03:36:01;4.65;;;4.25;;
22935;SDS011;11633;42.716;23.312;2022-07-03T03:38:26;5.55;;;4.03;;
22935;SDS011;11633;42.716;23.312;2022-07-03T03:40:52;5.63;;;4.65;;
22935;SDS011;11633;42.716;23.312;2022-07-03T03:43:17;5.20;;;4.53;;
22935;SDS011;11633;42.716;23.312;2022-07-03T03:45:42;4.22;;;3.65;;
22935;SDS011;11633;42.716;23.312;2022-07-03T03:48:07;6.82;;;4.47;;
22935;SDS011;11633;42.716;23.312;2022-07-03T03:50:33;4.85;;;3.88;;
22935;SDS011;11633;42.716;23.312;2022-07-03T03:52:59;4.43;;;4.03;;
22935;SDS011;11633;42.716;23.312;2022-07-03T03:55:25;4.78;;;4.00;;
22935;SDS011;11633;42.716;23.312;2022-07-03T03:57:50;4.10;;;3.42;;
22935;SDS011;11633;42.716;23.312;2022-07-03T04:00:15;3.83;;;3.45;;
22935;SDS011;11633;42.716;23.312;2022-07-03T04:02:40;3.88;;;3.45;;
22935;SDS011;11633;42.716;23.312;2022-07-03T04:05:06;4.30;;;3.85;;
22935;SDS011;11633;42.716;23.312;2022-07-03T04:07:31;4.68;;;4.03;;
22935;SDS011;11633;42.716;23.312;2022-07-03T04:09:56;4.35;;;4.00;;
22935;SDS011;11633;42.716;23.312;2022-07-03T04:12:22;4.70;;;4.28;;
22935;SDS011;11633;42.716;23.312;2022-07-03T04:14:47;4.40;;;4.00;;
22935;SDS011;11633;42.716;23.312;2022-07-03T04:17:12;4.68;;;4.18;;
22935;SDS011;11633;42.716;23.312;2022-07-03T04:19:44;4.28;;;3.85;;
22935;SDS011;11633;42.716;23.312;2022-07-03T04:22:18;3.70;;;3.40;;
22935;SDS011;11633;42.716;23.312;2022-07-03T04:24:43;4.88;;;4.13;;
22935;SDS011;11633;42.716;23.312;2022-07-03T04:27:08;4.38;;;3.97;;
22935;SDS011;11633;42.716;23.312;2022-07-03T04:29:34;3.95;;;3.55;;
22935;SDS011;11633;42.716;23.312;2022-07-03T04:31:59;5.40;;;3.83;;
22935;SDS011;11633;42.716;23.312;2022-07-03T04:34:24;4.50;;;4.10;;
22935;SDS011;11633;42.716;23.312;2022-07-03T04:36:50;4.53;;;4.13;;
22935;SDS011;11633;42.716;23.312;2022-07-03T04:39:15;4.43;;;4.00;;
22935;SDS011;11633;42.716;23.312;2022-07-03T04:41:40;5.28;;;3.83;;
22935;SDS011;11633;42.716;23.312;2022-07-03T04:44:05;4.83;;;4.43;;
22935;SDS011;11633;42.716;23.312;2022-07-03T04:46:31;4.05;;;3.72;;
22935;SDS011;11633;42.716;23.312;2022-07-03T04:48:56;4.55;;;4.15;;
22935;SDS011;11633;42.716;23.312;2022-07-03T04:51:21;6.43;;;4.68;;
22935;SDS011;11633;42.716;23.312;2022-07-03T04:53:46;4.70;;;4.13;;
22935;SDS011;11633;42.716;23.312;2022-07-03T04:56:12;6.72;;;6.05;;
22935;SDS011;11633;42.716;23.312;2022-07-03T04:58:37;5.30;;;4.38;;
22935;SDS011;11633;42.716;23.312;2022-07-03T05:01:02;4.22;;;3.83;;
22935;SDS011;11633;42.716;23.312;2022-07-03T05:03:27;4.35;;;3.95;;
22935;SDS011;11633;42.716;23.312;2022-07-03T05:05:53;5.55;;;3.75;;
22935;SDS011;11633;42.716;23.312;2022-07-03T05:08:18;4.57;;;4.13;;
22935;SDS011;11633;42.716;23.312;2022-07-03T05:10:45;4.32;;;3.92;;
22935;SDS011;11633;42.716;23.312;2022-07-03T05:13:10;4.28;;;3.90;;
22935;SDS011;11633;42.716;23.312;2022-07-03T05:15:36;4.57;;;4.18;;
22935;SDS011;11633;42.716;23.312;2022-07-03T05:18:02;4.25;;;3.85;;
22935;SDS011;11633;42.716;23.312;2022-07-03T05:20:27;5.30;;;4.80;;
22935;SDS011;11633;42.716;23.312;2022-07-03T05:23:30;4.50;;;4.07;;
22935;SDS011;11633;42.716;23.312;2022-07-03T05:25:56;5.40;;;4.80;;
22935;SDS011;11633;42.716;23.312;2022-07-03T05:28:21;4.03;;;3.72;;
22935;SDS011;11633;42.716;23.312;2022-07-03T05:30:46;4.35;;;3.95;;
22935;SDS011;11633;42.716;23.312;2022-07-03T05:33:11;4.68;;;3.67;;
22935;SDS011;11633;42.716;23.312;2022-07-03T05:35:37;3.80;;;3.40;;
22935;SDS011;11633;42.716;23.312;2022-07-03T05:38:02;4.87;;;4.47;;
22935;SDS011;11633;42.716;23.312;2022-07-03T05:40:27;4.63;;;4.15;;
22935;SDS011;11633;42.716;23.312;2022-07-03T05:42:52;4.20;;;3.80;;
22935;SDS011;11633;42.716;23.312;2022-07-03T05:45:18;4.80;;;3.95;;
22935;SDS011;11633;42.716;23.312;2022-07-03T05:47:43;5.18;;;4.53;;
22935;SDS011;11633;42.716;23.312;2022-07-03T05:50:09;3.90;;;3.35;;
22935;SDS011;11633;42.716;23.312;2022-07-03T05:52:34;4.70;;;4.30;;
22935;SDS011;11633;42.716;23.312;2022-07-03T05:55:00;5.20;;;4.53;;
22935;SDS011;11633;42.716;23.312;2022-07-03T05:57:25;3.80;;;3.50;;
22935;SDS011;11633;42.716;23.312;2022-07-03T05:59:50;4.38;;;3.88;;
22935;SDS011;11633;42.716;23.312;2022-07-03T06:02:15;3.65;;;3.35;;
22935;SDS011;11633;42.716;23.312;2022-07-03T06:04:42;4.00;;;3.58;;
22935;SDS011;11633;42.716;23.312;2022-07-03T06:07:07;4.20;;;3.80;;
22935;SDS011;11633;42.716;23.312;2022-07-03T06:09:32;4.03;;;3.72;;
22935;SDS011;11633;42.716;23.312;2022-07-03T06:11:57;5.85;;;4.28;;
22935;SDS011;11633;42.716;23.312;2022-07-03T06:14:23;3.95;;;3.65;;
22935;SDS011;11633;42.716;23.312;2022-07-03T06:16:48;4.03;;;3.72;;
22935;SDS011;11633;42.716;23.312;2022-07-03T06:19:13;3.72;;;3.42;;
22935;SDS011;11633;42.716;23.312;2022-07-03T06:21:39;3.28;;;3.05;;
22935;SDS011;11633;42.716;23.312;2022-07-03T06:24:04;3.90;;;3.60;;
22935;SDS011;11633;42.716;23.312;2022-07-03T06:26:29;3.78;;;3.47;;
22935;SDS011;11633;42.716;23.312;2022-07-03T06:28:58;3.30;;;3.10;;
22935;SDS011;11633;42.716;23.312;2022-07-03T06:31:23;3.25;;;2.95;;
22935;SDS011;11633;42.716;23.312;2022-07-03T06:33:48;4.85;;;4.18;;
22935;SDS011;11633;42.716;23.312;2022-07-03T06:36:13;3.40;;;3.13;;
22935;SDS011;11633;42.716;23.312;2022-07-03T06:38:39;3.25;;;2.95;;
22935;SDS011;11633;42.716;23.312;2022-07-03T06:41:04;4.22;;;3.90;;
22935;SDS011;11633;42.716;23.312;2022-07-03T06:43:29;3.57;;;3.27;;
22935;SDS011;11633;42.716;23.312;2022-07-03T06:45:54;4.40;;;4.00;;
22935;SDS011;11633;42.716;23.312;2022-07-03T06:48:20;4.77;;;3.63;;
22935;SDS011;11633;42.716;23.312;2022-07-03T06:50:46;3.25;;;2.95;;
22935;SDS011;11633;42.716;23.312;2022-07-03T06:53:11;3.15;;;2.95;;
22935;SDS011;11633;42.716;23.312;2022-07-03T06:55:36;3.17;;;2.88;;
22935;SDS011;11633;42.716;23.312;2022-07-03T06:58:02;3.45;;;3.15;;
22935;SDS011;11633;42.716;23.312;2022-07-03T07:00:27;3.50;;;3.20;;
22935;SDS011;11633;42.716;23.312;2022-07-03T07:02:52;3.40;;;3.10;;
22935;SDS011;11633;42.716;23.312;2022-07-03T07:05:17;3.50;;;3.27;;
22935;SDS011;11633;42.716;23.312;2022-07-03T07:07:43;3.47;;;3.17;;
22935;SDS011;11633;42.716;23.312;2022-07-03T07:10:08;3.10;;;2.50;;
22935;SDS011;11633;42.716;23.312;2022-07-03T07:12:33;3.78;;;3.47;;
22935;SDS011;11633;42.716;23.312;2022-07-03T07:14:59;2.97;;;2.78;;
22935;SDS011;11633;42.716;23.312;2022-07-03T07:17:24;3.95;;;3.40;;
22935;SDS011;11633;42.716;23.312;2022-07-03T07:19:49;3.13;;;2.85;;
22935;SDS011;11633;42.716;23.312;2022-07-03T07:22:14;3.20;;;2.90;;
22935;SDS011;11633;42.716;23.312;2022-07-03T07:24:40;3.15;;;2.90;;
22935;SDS011;11633;42.716;23.312;2022-07-03T07:27:05;3.50;;;3.20;;
22935;SDS011;11633;42.716;23.312;2022-07-03T07:29:30;3.00;;;2.80;;
22935;SDS011;11633;42.716;23.312;2022-07-03T07:31:55;2.95;;;2.75;;
22935;SDS011;11633;42.716;23.312;2022-07-03T07:34:21;3.50;;;3.03;;
22935;SDS011;11633;42.716;23.312;2022-07-03T07:36:46;3.00;;;2.78;;
22935;SDS011;11633;42.716;23.312;2022-07-03T07:39:11;3.40;;;3.10;;
22935;SDS011;11633;42.716;23.312;2022-07-03T07:41:37;3.75;;;3.45;;
22935;SDS011;11633;42.716;23.312;2022-07-03T07:44:02;3.53;;;3.13;;
22935;SDS011;11633;42.716;23.312;2022-07-03T07:46:28;4.55;;;3.10;;
22935;SDS011;11633;42.716;23.312;2022-07-03T07:48:53;3.63;;;3.33;;
22935;SDS011;11633;42.716;23.312;2022-07-03T07:51:19;3.35;;;3.05;;
22935;SDS011;11633;42.716;23.312;2022-07-03T07:53:44;2.95;;;2.75;;
22935;SDS011;11633;42.716;23.312;2022-07-03T07:56:09;3.08;;;2.88;;
22935;SDS011;11633;42.716;23.312;2022-07-03T07:58:35;3.53;;;3.20;;
22935;SDS011;11633;42.716;23.312;2022-07-03T08:01:00;3.63;;;3.33;;
22935;SDS011;11633;42.716;23.312;2022-07-03T08:03:44;4.15;;;3.85;;
22935;SDS011;11633;42.716;23.312;2022-07-03T08:06:44;2.97;;;2.78;;
22935;SDS011;11633;42.716;23.312;2022-07-03T08:09:10;3.97;;;3.27;;
22935;SDS011;11633;42.716;23.312;2022-07-03T08:11:35;4.20;;;3.67;;
22935;SDS011;11633;42.716;23.312;2022-07-03T08:14:00;3.93;;;3.57;;
22935;SDS011;11633;42.716;23.312;2022-07-03T08:16:25;4.20;;;3.65;;
22935;SDS011;11633;42.716;23.312;2022-07-03T08:18:51;3.53;;;3.22;;
22935;SDS011;11633;42.716;23.312;2022-07-03T08:21:17;2.97;;;2.78;;
22935;SDS011;11633;42.716;23.312;2022-07-03T08:23:42;3.92;;;3.45;;
22935;SDS011;11633;42.716;23.312;2022-07-03T08:26:08;2.78;;;2.58;;
22935;SDS011;11633;42.716;23.312;2022-07-03T08:28:33;3.28;;;2.97;;
22935;SDS011;11633;42.716;23.312;2022-07-03T08:30:58;3.83;;;3.28;;
22935;SDS011;11633;42.716;23.312;2022-07-03T08:33:23;3.70;;;3.25;;
22935;SDS011;11633;42.716;23.312;2022-07-03T08:35:49;2.85;;;2.65;;
